Time;durP1;ratioP1;P1;durP2;ratioP2;P2;SDS_P1;SDS_P2;PMS_P1;PMS_P2;Temp;Humidity;BMP_temperature;BMP_pressure;BME280_temperature;BME280_humidity;BME280_pressure;Samples;Min_cycle;Max_cycle;Signal;HPM_P1;HPM_P2
2022/08/30 00:02:59;;;;;;;3.28;2.72;;;;;;;;;;5004279;28;20120;-46
2022/08/30 00:05:25;;;;;;;3.65;2.60;;;;;;;;;;4983105;28;20089;-52
2022/08/30 00:07:52;;;;;;;3.63;2.30;;;;;;;;;;4990376;28;20022;-45
2022/08/30 00:10:18;;;;;;;4.53;2.72;;;;;;;;;;4976508;28;20110;-49
2022/08/30 00:12:44;;;;;;;3.35;2.20;;;;;;;;;;4975400;28;20023;-50
2022/08/30 00:15:12;;;;;;;3.55;2.40;;;;;;;;;;4976915;28;20396;-46
2022/08/30 00:17:38;;;;;;;4.78;2.63;;;;;;;;;;4994632;28;20129;-43
2022/08/30 00:20:05;;;;;;;3.50;2.20;;;;;;;;;;4977649;28;20054;-43
2022/08/30 00:22:32;;;;;;;4.35;2.22;;;;;;;;;;4981797;28;20027;-43
2022/08/30 00:24:59;;;;;;;3.70;2.42;;;;;;;;;;4978719;28;20081;-45
2022/08/30 00:27:25;;;;;;;3.90;2.50;;;;;;;;;;4991565;28;20026;-50
2022/08/30 00:29:51;;;;;;;3.40;2.33;;;;;;;;;;4979629;28;20416;-47
2022/08/30 00:32:20;;;;;;;3.70;2.30;;;;;;;;;;4995537;28;20033;-46
2022/08/30 00:34:46;;;;;;;4.10;2.40;;;;;;;;;;4998711;28;20094;-55
2022/08/30 00:37:12;;;;;;;3.15;2.30;;;;;;;;;;4993803;28;20041;-43
2022/08/30 00:39:38;;;;;;;5.45;2.78;;;;;;;;;;4989437;28;20038;-43
2022/08/30 00:42:04;;;;;;;4.63;2.90;;;;;;;;;;4993349;28;20483;-43
2022/08/30 00:44:30;;;;;;;3.08;2.25;;;;;;;;;;4983102;28;20030;-44
2022/08/30 00:46:56;;;;;;;2.90;2.22;;;;;;;;;;4973959;28;20096;-46
2022/08/30 00:49:22;;;;;;;3.17;2.20;;;;;;;;;;4974352;28;20036;-49
2022/08/30 00:51:48;;;;;;;2.72;2.50;;;;;;;;;;4991787;28;20053;-55
2022/08/30 00:54:14;;;;;;;6.65;3.00;;;;;;;;;;4983703;28;20077;-43
2022/08/30 00:56:40;;;;;;;3.00;2.20;;;;;;;;;;4984859;28;20395;-43
2022/08/30 00:59:07;;;;;;;3.33;2.53;;;;;;;;;;4985362;28;20054;-43
2022/08/30 01:01:36;;;;;;;3.72;2.20;;;;;;;;;;4978930;28;20030;-42
2022/08/30 01:04:02;;;;;;;4.32;2.55;;;;;;;;;;5013152;28;20083;-43
2022/08/30 01:06:28;;;;;;;5.45;2.67;;;;;;;;;;4992265;28;20026;-43
2022/08/30 01:08:57;;;;;;;3.33;2.25;;;;;;;;;;4993810;28;20042;-42
2022/08/30 01:11:24;;;;;;;4.60;2.80;;;;;;;;;;4994526;28;20022;-42
2022/08/30 01:13:50;;;;;;;4.80;2.80;;;;;;;;;;4994088;28;20026;-55
2022/08/30 01:16:16;;;;;;;3.40;2.70;;;;;;;;;;4994195;28;20026;-43
2022/08/30 01:18:43;;;;;;;3.05;2.58;;;;;;;;;;4994404;28;20034;-44
2022/08/30 01:21:27;;;;;;;4.05;2.25;;;;;;;;;;4992461;28;20620;-43
2022/08/30 01:23:55;;;;;;;4.07;2.90;;;;;;;;;;4988898;28;20030;-46
2022/08/30 01:26:22;;;;;;;3.28;2.92;;;;;;;;;;4993759;28;20030;-45
2022/08/30 01:28:49;;;;;;;5.55;3.20;;;;;;;;;;4994225;28;20026;-44
2022/08/30 01:31:16;;;;;;;3.85;2.70;;;;;;;;;;4993802;28;20022;-44
2022/08/30 01:33:42;;;;;;;5.55;3.05;;;;;;;;;;4993949;28;20037;-44
2022/08/30 01:36:11;;;;;;;2.75;2.30;;;;;;;;;;4993254;28;20026;-46
2022/08/30 01:38:39;;;;;;;3.80;2.50;;;;;;;;;;4994439;28;20042;-48
2022/08/30 01:41:25;;;;;;;4.32;2.80;;;;;;;;;;4989866;28;20031;-46
2022/08/30 01:43:53;;;;;;;4.30;3.00;;;;;;;;;;4982657;28;20022;-55
2022/08/30 01:46:22;;;;;;;4.55;3.08;;;;;;;;;;4993868;28;20023;-46
2022/08/30 01:48:48;;;;;;;4.70;2.70;;;;;;;;;;4993662;28;20117;-46
2022/08/30 01:51:14;;;;;;;4.65;2.72;;;;;;;;;;4992998;28;20126;-47
2022/08/30 01:53:42;;;;;;;4.82;2.65;;;;;;;;;;4993802;28;20345;-45
2022/08/30 01:56:09;;;;;;;3.70;2.63;;;;;;;;;;4992594;28;20040;-47
2022/08/30 01:58:35;;;;;;;4.15;2.58;;;;;;;;;;4993561;28;20081;-45
2022/08/30 02:01:03;;;;;;;3.92;2.75;;;;;;;;;;4987383;28;20030;-46
2022/08/30 02:03:33;;;;;;;4.85;2.90;;;;;;;;;;4993562;28;20035;-47
2022/08/30 02:06:07;;;;;;;3.88;2.70;;;;;;;;;;5005215;28;20054;-47
2022/08/30 02:08:34;;;;;;;5.22;2.80;;;;;;;;;;5012519;28;20046;-47
2022/08/30 02:11:00;;;;;;;3.38;2.50;;;;;;;;;;5012174;28;20084;-46
2022/08/30 02:13:27;;;;;;;3.97;2.78;;;;;;;;;;5012985;28;20033;-46
2022/08/30 02:15:56;;;;;;;3.63;2.63;;;;;;;;;;5012656;28;20036;-55
2022/08/30 02:18:23;;;;;;;4.47;2.50;;;;;;;;;;4997433;28;20033;-45
2022/08/30 02:20:49;;;;;;;3.33;2.60;;;;;;;;;;4993198;28;20081;-49
2022/08/30 02:23:15;;;;;;;4.35;3.00;;;;;;;;;;4992459;28;20248;-45
2022/08/30 02:25:41;;;;;;;4.35;3.00;;;;;;;;;;4993250;28;20041;-45
2022/08/30 02:28:07;;;;;;;4.88;2.88;;;;;;;;;;4992386;28;20028;-44
2022/08/30 02:30:33;;;;;;;6.40;2.83;;;;;;;;;;4993300;28;20026;-45
2022/08/30 02:33:00;;;;;;;3.60;2.72;;;;;;;;;;4990586;28;20030;-49
2022/08/30 02:35:26;;;;;;;5.72;2.80;;;;;;;;;;4988435;28;20030;-46
2022/08/30 02:37:52;;;;;;;5.25;2.80;;;;;;;;;;4992910;28;20076;-44
2022/08/30 02:40:18;;;;;;;3.65;2.65;;;;;;;;;;4992228;28;20030;-49
2022/08/30 02:42:44;;;;;;;3.47;2.63;;;;;;;;;;4992644;28;20021;-46
2022/08/30 02:45:11;;;;;;;4.30;2.72;;;;;;;;;;5010087;28;20029;-44
2022/08/30 02:47:37;;;;;;;3.88;2.38;;;;;;;;;;5012554;28;20026;-44
2022/08/30 02:50:05;;;;;;;4.70;2.90;;;;;;;;;;5000982;28;20080;-45
2022/08/30 02:52:31;;;;;;;4.53;2.50;;;;;;;;;;4992739;28;20530;-46
2022/08/30 02:54:57;;;;;;;3.75;3.03;;;;;;;;;;4992110;28;20034;-54
2022/08/30 02:57:23;;;;;;;5.13;3.10;;;;;;;;;;4992406;28;20442;-47
2022/08/30 02:59:49;;;;;;;4.45;2.80;;;;;;;;;;4992737;28;20030;-46
2022/08/30 03:02:15;;;;;;;4.63;2.80;;;;;;;;;;4991893;28;20065;-47
2022/08/30 03:04:43;;;;;;;3.25;2.67;;;;;;;;;;4995098;28;20057;-47
2022/08/30 03:07:11;;;;;;;3.83;2.80;;;;;;;;;;5011433;28;20525;-46
2022/08/30 03:09:38;;;;;;;5.25;2.75;;;;;;;;;;4992467;28;20365;-44
2022/08/30 03:12:06;;;;;;;3.00;2.30;;;;;;;;;;4991470;28;20030;-50
2022/08/30 03:14:34;;;;;;;3.20;2.85;;;;;;;;;;4992489;28;20538;-47
2022/08/30 03:17:00;;;;;;;5.82;2.75;;;;;;;;;;4991522;28;20030;-46
2022/08/30 03:19:26;;;;;;;4.55;2.85;;;;;;;;;;4992562;28;20059;-46
2022/08/30 03:21:52;;;;;;;3.92;2.55;;;;;;;;;;4992591;28;20390;-48
2022/08/30 03:24:18;;;;;;;3.42;2.85;;;;;;;;;;4991735;28;20177;-46
2022/08/30 03:26:44;;;;;;;4.63;3.30;;;;;;;;;;4986988;28;20551;-48
2022/08/30 03:29:10;;;;;;;4.22;2.92;;;;;;;;;;5002050;28;20487;-49
2022/08/30 03:31:36;;;;;;;3.70;2.92;;;;;;;;;;4992564;28;20053;-45
2022/08/30 03:34:04;;;;;;;2.78;2.50;;;;;;;;;;4991938;28;20443;-44
2022/08/30 03:36:30;;;;;;;4.18;2.85;;;;;;;;;;4992544;28;20106;-48
2022/08/30 03:38:56;;;;;;;3.33;2.60;;;;;;;;;;4992164;28;20121;-55
2022/08/30 03:41:23;;;;;;;4.18;2.42;;;;;;;;;;4991985;28;20488;-46
2022/08/30 03:43:49;;;;;;;4.95;2.90;;;;;;;;;;4991377;28;20031;-49
2022/08/30 03:46:15;;;;;;;4.93;3.03;;;;;;;;;;5005217;28;20039;-45
2022/08/30 03:48:41;;;;;;;4.70;2.78;;;;;;;;;;4995521;28;20486;-47
2022/08/30 03:51:07;;;;;;;5.35;3.17;;;;;;;;;;4995539;28;20061;-45
2022/08/30 03:53:33;;;;;;;3.55;2.65;;;;;;;;;;4995886;28;20450;-48
2022/08/30 03:55:59;;;;;;;3.95;2.35;;;;;;;;;;4995173;28;20026;-58
2022/08/30 03:58:25;;;;;;;4.47;2.80;;;;;;;;;;4995642;28;20435;-45
2022/08/30 04:00:51;;;;;;;3.85;2.95;;;;;;;;;;4990421;28;20022;-48
2022/08/30 04:03:19;;;;;;;4.93;2.80;;;;;;;;;;4994676;28;20045;-43
2022/08/30 04:05:45;;;;;;;5.10;2.92;;;;;;;;;;5006399;28;20558;-46
2022/08/30 04:08:11;;;;;;;3.85;2.38;;;;;;;;;;5014503;28;20064;-43
2022/08/30 04:10:37;;;;;;;3.75;2.88;;;;;;;;;;5015000;28;20030;-44
2022/08/30 04:13:04;;;;;;;3.50;2.97;;;;;;;;;;5014267;28;20033;-44
2022/08/30 04:15:30;;;;;;;3.80;2.85;;;;;;;;;;5014596;28;20030;-44
2022/08/30 04:17:56;;;;;;;3.45;2.60;;;;;;;;;;4991283;28;20116;-44
2022/08/30 04:20:22;;;;;;;2.88;2.55;;;;;;;;;;4994587;28;20595;-45
2022/08/30 04:22:48;;;;;;;3.58;2.78;;;;;;;;;;4995468;28;20024;-44
2022/08/30 04:25:15;;;;;;;3.35;2.58;;;;;;;;;;4994569;28;20380;-44
2022/08/30 04:27:41;;;;;;;4.60;2.97;;;;;;;;;;4995436;28;20034;-48
2022/08/30 04:30:07;;;;;;;3.30;2.90;;;;;;;;;;4994319;28;20144;-44
2022/08/30 04:32:34;;;;;;;3.33;2.50;;;;;;;;;;4995057;28;20065;-54
2022/08/30 04:35:00;;;;;;;3.85;2.60;;;;;;;;;;4995689;28;20161;-55
2022/08/30 04:37:26;;;;;;;3.83;2.88;;;;;;;;;;5008504;28;20060;-44
2022/08/30 04:39:56;;;;;;;5.57;2.70;;;;;;;;;;4995001;28;20034;-44
2022/08/30 04:42:23;;;;;;;3.65;2.67;;;;;;;;;;4994141;28;20785;-44
2022/08/30 04:44:49;;;;;;;4.55;2.33;;;;;;;;;;5010104;28;20018;-45
2022/08/30 04:47:17;;;;;;;3.00;2.38;;;;;;;;;;5013861;28;20369;-44
2022/08/30 04:49:43;;;;;;;2.92;2.20;;;;;;;;;;5014421;28;20057;-46
2022/08/30 04:52:09;;;;;;;4.75;3.20;;;;;;;;;;4993376;28;20026;-46
2022/08/30 04:54:35;;;;;;;3.40;2.70;;;;;;;;;;4994484;28;20102;-45
2022/08/30 04:57:01;;;;;;;4.35;2.92;;;;;;;;;;4994562;28;20018;-55
2022/08/30 04:59:27;;;;;;;3.60;2.75;;;;;;;;;;4994246;28;20057;-45
2022/08/30 05:01:53;;;;;;;4.32;3.10;;;;;;;;;;4994754;28;20149;-46
2022/08/30 05:04:19;;;;;;;3.92;2.70;;;;;;;;;;4993598;28;20544;-45
2022/08/30 05:06:45;;;;;;;3.78;2.83;;;;;;;;;;5013892;28;20097;-47
2022/08/30 05:09:11;;;;;;;4.05;2.53;;;;;;;;;;4991175;28;20101;-48
2022/08/30 05:11:38;;;;;;;5.20;2.97;;;;;;;;;;4994430;28;20034;-44
2022/08/30 05:14:04;;;;;;;3.47;2.70;;;;;;;;;;4994010;28;20037;-56
2022/08/30 05:16:30;;;;;;;3.95;2.90;;;;;;;;;;4994405;28;20030;-48
2022/08/30 05:18:56;;;;;;;4.07;2.85;;;;;;;;;;4994135;28;20068;-44
2022/08/30 05:21:25;;;;;;;5.43;3.30;;;;;;;;;;4993529;28;20635;-47
2022/08/30 05:23:52;;;;;;;4.07;3.05;;;;;;;;;;4989090;28;20018;-47
2022/08/30 05:26:26;;;;;;;4.55;3.00;;;;;;;;;;4993410;28;20058;-44
2022/08/30 05:28:52;;;;;;;4.25;3.17;;;;;;;;;;4994251;28;20065;-44
2022/08/30 05:31:18;;;;;;;5.90;3.10;;;;;;;;;;4993443;28;20026;-47
2022/08/30 05:33:44;;;;;;;4.38;3.05;;;;;;;;;;4994187;28;20077;-48
2022/08/30 05:36:11;;;;;;;6.38;2.90;;;;;;;;;;4993302;28;20034;-44
2022/08/30 05:38:37;;;;;;;6.30;3.40;;;;;;;;;;4993998;28;20046;-45
2022/08/30 05:41:04;;;;;;;3.00;2.58;;;;;;;;;;4988203;28;20035;-54
2022/08/30 05:43:30;;;;;;;4.97;2.72;;;;;;;;;;4998178;28;20026;-47
2022/08/30 05:46:04;;;;;;;4.15;3.00;;;;;;;;;;5002819;28;20030;-45
2022/08/30 05:48:30;;;;;;;4.22;3.10;;;;;;;;;;4993253;28;20030;-44
2022/08/30 05:51:10;;;;;;;3.95;2.75;;;;;;;;;;4994004;28;20030;-43
2022/08/30 05:53:36;;;;;;;4.97;2.97;;;;;;;;;;4993862;28;20109;-43
2022/08/30 05:56:04;;;;;;;5.93;3.38;;;;;;;;;;4992985;28;20026;-56
2022/08/30 05:58:30;;;;;;;3.92;2.83;;;;;;;;;;4988869;28;20037;-44
2022/08/30 06:00:56;;;;;;;4.90;3.03;;;;;;;;;;4993469;28;20030;-45
2022/08/30 06:03:22;;;;;;;4.05;3.22;;;;;;;;;;4992623;28;20118;-48
2022/08/30 06:05:48;;;;;;;4.72;3.47;;;;;;;;;;5004559;28;20143;-44
2022/08/30 06:08:14;;;;;;;5.05;3.30;;;;;;;;;;5011795;28;20026;-44
2022/08/30 06:10:40;;;;;;;5.07;3.28;;;;;;;;;;5013099;28;20120;-44
2022/08/30 06:13:06;;;;;;;5.18;3.10;;;;;;;;;;5012911;28;20475;-55
2022/08/30 06:15:32;;;;;;;5.57;2.75;;;;;;;;;;4990385;28;20037;-44
2022/08/30 06:17:58;;;;;;;7.72;4.22;;;;;;;;;;4992749;28;20023;-46
2022/08/30 06:20:24;;;;;;;10.18;5.90;;;;;;;;;;4987834;28;20650;-46
2022/08/30 06:22:50;;;;;;;9.07;5.93;;;;;;;;;;4992696;28;20402;-45
2022/08/30 06:25:17;;;;;;;12.40;6.18;;;;;;;;;;5000982;28;20030;-47
2022/08/30 06:27:43;;;;;;;9.77;5.93;;;;;;;;;;4994068;28;20026;-49
2022/08/30 06:30:10;;;;;;;7.90;5.00;;;;;;;;;;5007671;28;20375;-46
2022/08/30 06:32:37;;;;;;;11.48;6.00;;;;;;;;;;5012187;28;20045;-45
2022/08/30 06:35:04;;;;;;;6.82;4.47;;;;;;;;;;5005539;28;20019;-45
2022/08/30 06:37:31;;;;;;;7.50;4.43;;;;;;;;;;5002167;28;20472;-45
2022/08/30 06:39:58;;;;;;;8.15;4.50;;;;;;;;;;4989660;28;20037;-45
2022/08/30 06:42:30;;;;;;;7.63;4.63;;;;;;;;;;4990257;28;20384;-45
2022/08/30 06:44:56;;;;;;;8.63;4.90;;;;;;;;;;4998237;28;20056;-47
2022/08/30 06:47:22;;;;;;;8.00;4.97;;;;;;;;;;5001787;28;20053;-46
2022/08/30 06:49:48;;;;;;;8.45;4.60;;;;;;;;;;5005297;28;20117;-44
2022/08/30 06:52:14;;;;;;;7.72;4.50;;;;;;;;;;5011373;28;20049;-46
2022/08/30 06:54:40;;;;;;;7.28;4.68;;;;;;;;;;4999202;28;20018;-47
2022/08/30 06:57:06;;;;;;;7.50;4.68;;;;;;;;;;5004608;28;20096;-56
2022/08/30 06:59:32;;;;;;;7.60;4.80;;;;;;;;;;5002299;28;20060;-46
2022/08/30 07:01:58;;;;;;;6.38;4.50;;;;;;;;;;5009758;28;20502;-49
2022/08/30 07:04:24;;;;;;;8.45;5.45;;;;;;;;;;4994034;28;20050;-45
2022/08/30 07:06:50;;;;;;;8.48;4.95;;;;;;;;;;4997279;28;20026;-50
2022/08/30 07:09:18;;;;;;;7.20;4.60;;;;;;;;;;5002674;28;20073;-47
2022/08/30 07:11:44;;;;;;;9.60;4.72;;;;;;;;;;5004180;28;20034;-51
2022/08/30 07:14:10;;;;;;;7.97;4.93;;;;;;;;;;4995130;28;20029;-57
2022/08/30 07:16:36;;;;;;;9.05;4.15;;;;;;;;;;5002054;28;20037;-46
2022/08/30 07:19:03;;;;;;;6.05;4.45;;;;;;;;;;5004380;28;20034;-46
2022/08/30 07:21:39;;;;;;;8.98;4.57;;;;;;;;;;5010120;28;20037;-48
2022/08/30 07:24:06;;;;;;;6.68;4.05;;;;;;;;;;5000845;28;20027;-47
2022/08/30 07:26:34;;;;;;;6.50;4.05;;;;;;;;;;5014025;28;20022;-48
2022/08/30 07:29:00;;;;;;;6.25;4.70;;;;;;;;;;5003023;28;20034;-47
2022/08/30 07:31:26;;;;;;;7.03;4.55;;;;;;;;;;5004786;28;20443;-49
2022/08/30 07:33:52;;;;;;;5.93;4.07;;;;;;;;;;5009263;28;20079;-49
2022/08/30 07:36:20;;;;;;;6.28;3.55;;;;;;;;;;5012194;28;20030;-45
2022/08/30 07:38:47;;;;;;;8.30;4.38;;;;;;;;;;4995894;28;20475;-45
2022/08/30 07:41:20;;;;;;;6.70;3.80;;;;;;;;;;5003179;28;20034;-46
2022/08/30 07:43:46;;;;;;;8.75;4.47;;;;;;;;;;5006434;28;20038;-47
2022/08/30 07:46:13;;;;;;;6.88;4.53;;;;;;;;;;5004061;28;20026;-50
2022/08/30 07:48:39;;;;;;;9.82;5.15;;;;;;;;;;4982709;28;20463;-45
2022/08/30 07:51:08;;;;;;;14.05;5.28;;;;;;;;;;5008066;28;20018;-46
2022/08/30 07:53:34;;;;;;;10.80;5.20;;;;;;;;;;4989952;28;20023;-50
2022/08/30 07:56:00;;;;;;;11.02;4.90;;;;;;;;;;4991312;28;20029;-49
2022/08/30 07:58:26;;;;;;;10.95;4.75;;;;;;;;;;5012229;28;20026;-48
2022/08/30 08:00:53;;;;;;;8.82;4.60;;;;;;;;;;4995299;28;20431;-48
2022/08/30 08:03:19;;;;;;;6.72;4.10;;;;;;;;;;5003446;28;20033;-49
2022/08/30 08:05:45;;;;;;;9.40;5.22;;;;;;;;;;5013304;28;20389;-48
2022/08/30 08:08:11;;;;;;;7.60;4.75;;;;;;;;;;4999090;28;20022;-59
2022/08/30 08:10:38;;;;;;;8.73;4.80;;;;;;;;;;4995026;28;20057;-48
2022/08/30 08:13:04;;;;;;;7.43;4.40;;;;;;;;;;5000416;28;20034;-46
2022/08/30 08:15:30;;;;;;;6.13;4.00;;;;;;;;;;5008142;28;20167;-48
2022/08/30 08:17:56;;;;;;;6.63;4.47;;;;;;;;;;5009484;28;20034;-45
2022/08/30 08:20:24;;;;;;;7.57;4.50;;;;;;;;;;4993632;28;20026;-49
2022/08/30 08:22:51;;;;;;;7.10;4.50;;;;;;;;;;4999244;28;20029;-45
2022/08/30 08:25:17;;;;;;;10.73;4.82;;;;;;;;;;4993735;28;20357;-49
2022/08/30 08:27:43;;;;;;;7.43;4.30;;;;;;;;;;4994365;28;20022;-54
2022/08/30 08:30:09;;;;;;;7.47;4.20;;;;;;;;;;4980848;28;20039;-47
2022/08/30 08:32:35;;;;;;;7.43;4.10;;;;;;;;;;4997701;28;20037;-49
2022/08/30 08:35:01;;;;;;;6.75;3.97;;;;;;;;;;5007821;28;20030;-45
2022/08/30 08:37:27;;;;;;;8.75;4.05;;;;;;;;;;5003825;28;20026;-47
2022/08/30 08:39:54;;;;;;;6.78;4.43;;;;;;;;;;5014359;28;20034;-46
2022/08/30 08:42:24;;;;;;;9.30;4.57;;;;;;;;;;4997065;28;20048;-45
2022/08/30 08:44:54;;;;;;;10.35;4.93;;;;;;;;;;5011704;28;20026;-45
2022/08/30 08:47:20;;;;;;;6.78;4.32;;;;;;;;;;5004731;28;20019;-44
2022/08/30 08:49:49;;;;;;;8.45;4.72;;;;;;;;;;4994186;28;20034;-47
2022/08/30 08:55:08;;;;;;;9.43;5.05;;;;;;;;;;5007441;28;20109;-48
2022/08/30 08:57:35;;;;;;;8.25;5.20;;;;;;;;;;5004399;28;20026;-48
2022/08/30 09:00:03;;;;;;;6.68;4.78;;;;;;;;;;5005767;28;20026;-45
2022/08/30 09:02:33;;;;;;;8.38;4.43;;;;;;;;;;4991051;28;20081;-49
2022/08/30 09:05:00;;;;;;;6.13;3.83;;;;;;;;;;4997914;28;20042;-46
2022/08/30 09:07:32;;;;;;;9.82;4.93;;;;;;;;;;5003872;28;20034;-45
2022/08/30 09:09:59;;;;;;;6.15;4.18;;;;;;;;;;4994183;28;20046;-46
2022/08/30 09:12:26;;;;;;;4.90;3.80;;;;;;;;;;4994626;28;20344;-46
2022/08/30 09:14:55;;;;;;;6.70;3.88;;;;;;;;;;4988382;28;20069;-45
2022/08/30 09:17:21;;;;;;;5.93;3.78;;;;;;;;;;4991445;28;20034;-45
2022/08/30 09:19:53;;;;;;;7.32;4.07;;;;;;;;;;4985426;28;20121;-47
2022/08/30 09:22:25;;;;;;;10.18;3.70;;;;;;;;;;5009883;28;20080;-47
2022/08/30 09:25:11;;;;;;;5.53;3.80;;;;;;;;;;5003836;28;20125;-47
2022/08/30 09:27:45;;;;;;;6.65;3.50;;;;;;;;;;4979149;28;20129;-45
2022/08/30 09:30:17;;;;;;;6.05;3.25;;;;;;;;;;4995620;28;20039;-44
2022/08/30 09:32:51;;;;;;;5.05;3.45;;;;;;;;;;4994467;28;20026;-46
2022/08/30 09:35:19;;;;;;;5.18;3.35;;;;;;;;;;4993797;28;20122;-56
2022/08/30 09:37:51;;;;;;;5.82;3.88;;;;;;;;;;5005676;28;20036;-47
2022/08/30 09:40:22;;;;;;;5.15;3.40;;;;;;;;;;4996652;28;20026;-57
2022/08/30 09:43:01;;;;;;;7.75;4.03;;;;;;;;;;5007988;28;20030;-50
2022/08/30 09:45:30;;;;;;;3.80;3.20;;;;;;;;;;4986149;28;20033;-49
2022/08/30 09:47:56;;;;;;;5.00;3.35;;;;;;;;;;4997593;28;20042;-46
2022/08/30 09:50:23;;;;;;;3.95;3.38;;;;;;;;;;5008162;28;20041;-48
2022/08/30 09:53:13;;;;;;;3.95;3.33;;;;;;;;;;5000045;28;20038;-48
2022/08/30 09:55:59;;;;;;;4.63;3.45;;;;;;;;;;4998281;28;21292;-52
2022/08/30 09:58:31;;;;;;;4.38;3.28;;;;;;;;;;4949006;28;20442;-47
2022/08/30 10:01:00;;;;;;;5.85;3.40;;;;;;;;;;5006724;28;20044;-50
2022/08/30 10:03:26;;;;;;;6.13;3.88;;;;;;;;;;4991848;28;20035;-48
2022/08/30 10:05:55;;;;;;;6.07;3.95;;;;;;;;;;4992535;28;20400;-48
2022/08/30 10:08:29;;;;;;;4.70;4.00;;;;;;;;;;4999827;28;20035;-47
2022/08/30 10:11:00;;;;;;;7.15;3.45;;;;;;;;;;5002273;28;20103;-45
2022/08/30 10:13:45;;;;;;;6.53;3.55;;;;;;;;;;5001992;28;20030;-45
2022/08/30 10:16:11;;;;;;;8.23;3.45;;;;;;;;;;5008695;28;20443;-43
2022/08/30 10:18:43;;;;;;;16.17;5.05;;;;;;;;;;4995594;28;20009;-44
2022/08/30 10:21:28;;;;;;;12.15;5.57;;;;;;;;;;5004604;28;20019;-44
2022/08/30 10:24:00;;;;;;;9.70;4.72;;;;;;;;;;4999910;28;20042;-43
2022/08/30 10:26:29;;;;;;;10.55;5.45;;;;;;;;;;5008085;28;20029;-44
2022/08/30 10:28:58;;;;;;;14.10;10.82;;;;;;;;;;4998925;28;20030;-44
2022/08/30 10:31:31;;;;;;;15.85;12.25;;;;;;;;;;5001889;28;20416;-45
2022/08/30 10:34:00;;;;;;;19.42;12.90;;;;;;;;;;5006519;28;20475;-44
2022/08/30 10:36:46;;;;;;;16.75;10.57;;;;;;;;;;4995072;28;20541;-44
2022/08/30 10:39:14;;;;;;;11.27;8.52;;;;;;;;;;5004341;28;20089;-43
2022/08/30 10:41:43;;;;;;;13.52;9.40;;;;;;;;;;4998187;28;20026;-44
2022/08/30 10:44:15;;;;;;;13.43;9.50;;;;;;;;;;5008337;28;20033;-44
2022/08/30 10:46:40;;;;;;;;;;;;;;;;;;4980447;28;20056;-44
2022/08/30 10:49:11;;;;;;;13.48;9.32;;;;;;;;;;5004968;28;19906;-44
2022/08/30 10:51:56;;;;;;;13.02;9.77;;;;;;;;;;5003092;28;20022;-49
2022/08/30 10:54:25;;;;;;;14.13;10.40;;;;;;;;;;4994855;28;20053;-44
2022/08/30 10:56:52;;;;;;;13.07;10.57;;;;;;;;;;5007031;28;20125;-44
2022/08/30 10:59:18;;;;;;;14.52;10.77;;;;;;;;;;5000042;28;20056;-55
2022/08/30 11:01:48;;;;;;;14.38;11.25;;;;;;;;;;4999697;28;20026;-46
2022/08/30 11:04:15;;;;;;;11.73;9.95;;;;;;;;;;5008115;28;20058;-43
2022/08/30 11:06:56;;;;;;;12.50;9.70;;;;;;;;;;5006605;28;20479;-44
2022/08/30 11:09:28;;;;;;;10.73;9.45;;;;;;;;;;5000994;28;20089;-44
2022/08/30 11:12:06;;;;;;;12.93;9.88;;;;;;;;;;4998262;28;20061;-44
2022/08/30 11:14:32;;;;;;;12.75;9.93;;;;;;;;;;5007689;28;20018;-44
2022/08/30 11:17:00;;;;;;;13.18;9.88;;;;;;;;;;4998033;28;20536;-43
2022/08/30 11:19:28;;;;;;;10.57;8.60;;;;;;;;;;5001134;28;20471;-43
2022/08/30 11:22:14;;;;;;;10.82;8.38;;;;;;;;;;5005919;28;20379;-44
2022/08/30 11:24:59;;;;;;;12.20;8.82;;;;;;;;;;4978893;28;20045;-44
2022/08/30 11:27:44;;;;;;;11.32;9.38;;;;;;;;;;4995701;28;20521;-43
2022/08/30 11:30:25;;;;;;;10.32;9.18;;;;;;;;;;4989016;28;20117;-44
2022/08/30 11:33:23;;;;;;;11.47;8.60;;;;;;;;;;4984039;28;20455;-43
2022/08/30 11:35:53;;;;;;;12.18;8.52;;;;;;;;;;4998492;28;20043;-44
2022/08/30 11:38:25;;;;;;;12.63;8.18;;;;;;;;;;5007303;28;20030;-55
2022/08/30 11:41:05;;;;;;;8.68;7.38;;;;;;;;;;4996825;28;20052;-44
2022/08/30 11:43:34;;;;;;;9.88;8.30;;;;;;;;;;4999991;28;20022;-48
2022/08/30 11:46:19;;;;;;;11.27;8.25;;;;;;;;;;5006164;28;20092;-44
2022/08/30 11:48:50;;;;;;;9.50;7.75;;;;;;;;;;4981034;28;20089;-44
2022/08/30 11:51:23;;;;;;;11.57;7.72;;;;;;;;;;4997075;28;20096;-56
2022/08/30 11:53:57;;;;;;;8.85;7.63;;;;;;;;;;4993618;28;20034;-46
2022/08/30 11:56:26;;;;;;;8.60;7.18;;;;;;;;;;5001729;28;20029;-45
2022/08/30 11:59:02;;;;;;;9.75;7.15;;;;;;;;;;4994165;28;20038;-46
2022/08/30 12:01:28;;;;;;;9.60;7.45;;;;;;;;;;5003103;28;20030;-49
2022/08/30 12:03:54;;;;;;;8.90;7.47;;;;;;;;;;5003775;28;20143;-49
2022/08/30 12:06:38;;;;;;;9.73;6.97;;;;;;;;;;5005966;28;20038;-53
2022/08/30 12:09:04;;;;;;;8.90;7.20;;;;;;;;;;5010940;28;20037;-44
2022/08/30 12:11:33;;;;;;;7.57;6.53;;;;;;;;;;4998686;28;20057;-44
2022/08/30 12:14:00;;;;;;;7.43;6.55;;;;;;;;;;5006136;28;20026;-47
2022/08/30 12:18:26;;;;;;;9.00;6.90;;;;;;;;;;5006243;28;20065;-44
2022/08/30 12:19:25;;;;;;;9.13;7.10;;;;;;;;;;4983568;28;20131;-46
2022/08/30 12:21:55;;;;;;;8.10;6.30;;;;;;;;;;5001994;28;20072;-44
2022/08/30 12:24:26;;;;;;;8.63;6.22;;;;;;;;;;5001945;28;20077;-46
2022/08/30 12:26:53;;;;;;;7.07;6.05;;;;;;;;;;5010687;28;20475;-44
2022/08/30 12:29:24;;;;;;;10.43;6.80;;;;;;;;;;4997628;28;20022;-55
2022/08/30 12:32:06;;;;;;;9.18;5.63;;;;;;;;;;5006896;28;20043;-44
2022/08/30 12:34:35;;;;;;;6.70;5.95;;;;;;;;;;5007278;28;20018;-44
2022/08/30 12:37:04;;;;;;;8.38;6.25;;;;;;;;;;4998183;28;20031;-43
2022/08/30 12:39:32;;;;;;;8.63;5.80;;;;;;;;;;5008956;28;20034;-44
2022/08/30 12:42:33;;;;;;;6.90;6.00;;;;;;;;;;5003137;28;20112;-43
2022/08/30 12:45:01;;;;;;;8.07;5.97;;;;;;;;;;4918520;29;20087;-44
2022/08/30 12:47:35;;;;;;;8.10;5.40;;;;;;;;;;4987992;28;20038;-44
2022/08/30 12:50:03;;;;;;;7.03;6.10;;;;;;;;;;5007111;28;20053;-44
2022/08/30 12:52:33;;;;;;;5.97;5.07;;;;;;;;;;5000822;28;20058;-45
2022/08/30 12:55:25;;;;;;;6.30;5.20;;;;;;;;;;5009480;28;20101;-45
2022/08/30 12:57:54;;;;;;;7.18;5.93;;;;;;;;;;5002040;28;20058;-44
2022/08/30 13:00:34;;;;;;;6.93;5.55;;;;;;;;;;5005312;28;20052;-54
2022/08/30 13:03:05;;;;;;;8.15;6.18;;;;;;;;;;4997784;28;20027;-46
2022/08/30 13:05:34;;;;;;;6.53;5.57;;;;;;;;;;5008111;28;20495;-44
2022/08/30 13:08:08;;;;;;;6.15;5.55;;;;;;;;;;5005215;28;20468;-45
2022/08/30 13:10:35;;;;;;;6.95;5.47;;;;;;;;;;5006655;28;20033;-46
2022/08/30 13:13:05;;;;;;;7.60;5.75;;;;;;;;;;4997064;28;20444;-44
2022/08/30 13:15:35;;;;;;;7.13;5.05;;;;;;;;;;5005048;28;20025;-44
2022/08/30 13:18:18;;;;;;;5.72;5.05;;;;;;;;;;5004986;28;20475;-44
2022/08/30 13:20:48;;;;;;;6.60;5.10;;;;;;;;;;4978932;28;20468;-45
2022/08/30 13:23:21;;;;;;;6.13;5.28;;;;;;;;;;5009171;28;20176;-44
2022/08/30 13:25:47;;;;;;;6.35;5.47;;;;;;;;;;5000746;28;20022;-44
2022/08/30 13:28:13;;;;;;;6.38;5.65;;;;;;;;;;5003111;28;20033;-48
2022/08/30 13:30:39;;;;;;;8.18;5.85;;;;;;;;;;5006951;28;20597;-43
2022/08/30 13:33:05;;;;;;;6.95;5.45;;;;;;;;;;4996866;28;20031;-44
2022/08/30 13:35:32;;;;;;;6.35;5.72;;;;;;;;;;5007900;28;20022;-44
2022/08/30 13:38:00;;;;;;;8.05;5.25;;;;;;;;;;5002066;28;20030;-46
2022/08/30 13:40:26;;;;;;;6.15;5.55;;;;;;;;;;5000446;28;20027;-43
2022/08/30 13:42:52;;;;;;;6.25;5.22;;;;;;;;;;5009344;28;20061;-44
2022/08/30 13:45:19;;;;;;;6.85;4.90;;;;;;;;;;4996921;28;20121;-44
2022/08/30 13:47:45;;;;;;;6.07;5.38;;;;;;;;;;5000045;28;20447;-44
2022/08/30 13:50:11;;;;;;;6.20;5.43;;;;;;;;;;4997117;28;20038;-44
2022/08/30 13:52:37;;;;;;;5.80;5.20;;;;;;;;;;5006441;28;20076;-44
2022/08/30 13:55:04;;;;;;;6.43;5.13;;;;;;;;;;4993474;28;20023;-44
2022/08/30 13:57:30;;;;;;;6.38;5.05;;;;;;;;;;5010435;28;20030;-44
2022/08/30 13:59:56;;;;;;;6.65;5.00;;;;;;;;;;5004783;28;20034;-44
2022/08/30 14:02:22;;;;;;;6.30;5.00;;;;;;;;;;5004445;28;20021;-55
2022/08/30 14:04:48;;;;;;;6.30;4.70;;;;;;;;;;5000411;28;20065;-44
2022/08/30 14:07:14;;;;;;;5.43;4.63;;;;;;;;;;4996391;28;20115;-44
2022/08/30 14:09:40;;;;;;;6.72;4.85;;;;;;;;;;5006094;28;20596;-44
2022/08/30 14:12:06;;;;;;;7.53;5.18;;;;;;;;;;4996797;28;20030;-45
2022/08/30 14:14:32;;;;;;;6.05;4.68;;;;;;;;;;5005176;28;20021;-46
2022/08/30 14:16:58;;;;;;;5.13;4.63;;;;;;;;;;4996014;28;20109;-48
2022/08/30 14:19:24;;;;;;;5.32;4.63;;;;;;;;;;5000956;28;20486;-56
2022/08/30 14:21:50;;;;;;;5.13;4.60;;;;;;;;;;5000220;28;20025;-44
2022/08/30 14:24:18;;;;;;;5.05;4.55;;;;;;;;;;4997461;28;20015;-45
2022/08/30 14:26:47;;;;;;;4.75;3.80;;;;;;;;;;4977919;28;20053;-44
2022/08/30 14:29:14;;;;;;;5.25;4.10;;;;;;;;;;5007370;28;20042;-44
2022/08/30 14:31:40;;;;;;;5.22;4.72;;;;;;;;;;4980548;28;20050;-44
2022/08/30 14:34:07;;;;;;;5.20;4.70;;;;;;;;;;5002133;28;20525;-45
2022/08/30 14:36:35;;;;;;;6.05;4.15;;;;;;;;;;4998537;28;20041;-44
2022/08/30 14:39:01;;;;;;;6.95;4.68;;;;;;;;;;5008420;28;20018;-44
2022/08/30 14:41:27;;;;;;;6.53;4.18;;;;;;;;;;4996113;28;20101;-45
2022/08/30 14:43:53;;;;;;;5.57;4.15;;;;;;;;;;5004370;28;20023;-44
2022/08/30 14:46:20;;;;;;;4.47;4.05;;;;;;;;;;5003963;28;20482;-44
2022/08/30 14:48:46;;;;;;;5.15;4.47;;;;;;;;;;4996256;28;20026;-45
2022/08/30 14:51:16;;;;;;;7.22;4.60;;;;;;;;;;5009019;28;20026;-45
2022/08/30 14:53:42;;;;;;;4.35;3.95;;;;;;;;;;4997887;28;20064;-44